Terminal Aerodrome Forecast
Issued by NWS Wilmington, OH

Current Version | Previous Version | Graphics & Text | Print | Product List | Glossary On
Versions: 1 2 3 4 5 6 7 8 9 10 11 12 13 14 15 16 17 18 19 20 21 22 23
000
FTUS41 KILN 251509 AAA
TAFCVG
TAF AMD
KCVG 251509Z 2515/2618 08007KT P6SM FEW030
     FM252300 06005KT P6SM SKC
     FM260700 08003KT 5SM BR SKC
     FM261300 15005KT P6SM FEW250=

USA.gov is the U.S. government's official web portal to all federal, state and local government web resources and services.